Latest Weather Observations for Ulladulla

IDN60801

Issued at 8:03 am EST Thursday 29 September 2016 (issued every 30 minutes, with the page automatically refreshed every 10 minutes)

About weather observations | Map of weather stations | Latest weather observations for NSW | Other Formats
Station Details ID: 069138 Name: ULLADULLA AWS Lat: -35.36 Lon: 150.48 Height: 35.7 m
Data from the previous 72 hours. | See also: Recent months at Ulladulla
Date/Time
EST
Temp
°C
App
Temp
°C
Dew
Point
°C
Rel
Hum
%
Delta-T
°C
Wind Press
QNH
hPa
Press
MSL
hPa
Rain since
9am
mm
Dir  Spd
km/h
Gust
km/h
Spd
kts
Gust
kts
29/08:00am - - - - - NNW 11 17 6 9 1000.0 999.9 2.6
29/07:30am - - - - - N 9 15 5 8 1000.1 1000.0 1.0
29/07:00am - - - - - NNW 11 17 6 9 1000.4 1000.3 0.0
29/06:30am - - - - - N 15 20 8 11 1000.6 1000.5 0.0
29/06:00am - - - - - N 15 22 8 12 1000.9 1000.8 0.0
29/05:30am - - - - - NNW 15 30 8 16 1001.6 1001.5 0.0
29/05:00am - - - - - N 15 24 8 13 1001.2 1001.1 0.0
29/04:30am - - - - - N 19 28 10 15 1001.6 1001.5 0.0
29/04:00am - - - - - N 9 19 5 10 1002.1 1002.0 0.0
29/03:30am - - - - - N 9 15 5 8 1002.8 1002.7 0.0
29/03:00am - - - - - N 11 19 6 10 1003.5 1003.4 0.0
29/02:30am - - - - - N 13 17 7 9 1004.3 1004.2 0.0
29/02:00am - - - - - N 13 20 7 11 1004.9 1004.8 0.0
29/01:30am - - - - - N 13 20 7 11 1005.6 1005.5 0.0
29/01:00am - - - - - N 11 19 6 10 1006.1 1006.0 0.0
29/12:30am - - - - - NNW 11 19 6 10 1006.6 1006.5 0.0
29/12:00am - - - - - N 9 15 5 8 1007.3 1007.3 0.0
 
Date/Time
EST
Temp
°C
App
Temp
°C
Dew
Point
°C
Rel
Hum
%
Delta-T
°C
Wind Press
QNH
hPa
Press
MSL
hPa
Rain since
9am
mm
Dir  Spd
km/h
Gust
km/h
Spd
kts
Gust
kts
28/11:30pm - - - - - N 11 17 6 9 1007.8 1007.8 0.0
28/11:00pm - - - - - N 11 17 6 9 1008.0 1008.0 0.0
28/10:30pm - - - - - N 11 20 6 11 1008.4 1008.4 0.0
28/10:00pm - - - - - N 11 15 6 8 1008.8 1008.8 0.0
28/09:30pm - - - - - N 11 17 6 9 1008.9 1008.9 0.0
28/09:00pm - - - - - NNW 6 11 3 6 1009.4 1009.4 0.0
28/08:30pm - - - - - NW 6 9 3 5 1009.8 1009.8 0.0
28/08:00pm - - - - - N 13 20 7 11 1009.7 1009.7 0.0
28/07:30pm - - - - - NE 13 28 7 15 1009.6 1009.6 0.0
28/07:00pm - - - - - NE 19 30 10 16 1009.6 1009.6 0.0
28/06:30pm - - - - - NNE 11 17 6 9 1009.9 1009.9 0.0
28/06:00pm - - - - - NE 19 26 10 14 1009.9 1009.9 0.0
28/05:30pm - - - - - NE 13 22 7 12 1010.1 1010.1 0.0
28/05:00pm - - - - - NE 13 20 7 11 1010.1 1010.1 0.0
28/04:30pm - - - - - ENE 13 22 7 12 1010.3 1010.3 0.0
28/04:00pm - - - - - NE 11 24 6 13 1010.4 1010.4 0.0
28/03:30pm - - - - - ENE 11 19 6 10 1010.6 1010.6 0.0
28/03:00pm - - - - - ENE 9 15 5 8 1011.0 1011.0 0.0
28/02:30pm - - - - - NE 9 15 5 8 1011.3 1011.3 0.0
28/02:00pm - - - - - ENE 9 17 5 9 1011.8 1011.8 0.0
28/01:30pm - - - - - ENE 7 15 4 8 1012.2 1012.2 0.0
28/01:00pm - - - - - ENE 9 15 5 8 1012.6 1012.6 0.0
28/12:30pm - - - - - E 9 13 5 7 1012.7 1012.7 0.0
28/12:00pm - - - - - ENE 7 15 4 8 1013.1 1013.1 0.0
28/11:30am - - - - - E 7 13 4 7 1013.4 1013.4 0.0
28/11:00am - - - - - SE 6 9 3 5 1013.6 1013.6 0.0
28/10:30am - - - - - SE 7 11 4 6 1013.9 1013.9 0.0
28/10:00am - - - - - SSE 7 11 4 6 1014.1 1014.1 0.0
28/09:30am - - - - - SE 6 11 3 6 1014.4 1014.4 0.0
28/09:00am - - - - - SSE 6 9 3 5 1014.4 1014.4 0.0
28/08:30am - - - - - SSW 6 9 3 5 1014.4 1014.4 0.0
28/08:00am - - - - - SW 4 9 2 5 1014.4 1014.4 0.0
28/07:30am - - - - - WSW 6 9 3 5 1014.2 1014.2 0.0
28/07:00am - - - - - WSW 7 9 4 5 1013.9 1013.9 0.0
28/06:30am - - - - - WSW 7 11 4 6 1013.6 1013.6 0.0
28/06:00am - - - - - WSW 7 11 4 6 1013.5 1013.5 0.0
28/05:30am - - - - - WSW 7 11 4 6 1013.1 1013.1 0.0
28/05:00am - - - - - W 7 11 4 6 1013.0 1013.0 0.0
28/04:30am - - - - - W 7 9 4 5 1012.8 1012.8 0.0
28/04:00am - - - - - W 7 9 4 5 1012.5 1012.5 0.0
28/03:30am - - - - - W 7 11 4 6 1012.5 1012.5 0.0
28/03:00am - - - - - WNW 7 11 4 6 1012.3 1012.3 0.0
28/02:30am - - - - - W 7 11 4 6 1012.2 1012.2 0.0
28/02:00am - - - - - W 7 9 4 5 1012.4 1012.4 0.0
28/01:30am - - - - - W 7 13 4 7 1012.4 1012.4 0.0
28/01:00am - - - - - W 7 15 4 8 1012.6 1012.6 0.0
28/12:30am - - - - - W 9 17 5 9 1012.8 1012.8 0.0
28/12:00am - - - - - W 7 9 4 5 1012.7 1012.7 0.0
 
Date/Time
EST
Temp
°C
App
Temp
°C
Dew
Point
°C
Rel
Hum
%
Delta-T
°C
Wind Press
QNH
hPa
Press
MSL
hPa
Rain since
9am
mm
Dir  Spd
km/h
Gust
km/h
Spd
kts
Gust
kts
27/11:30pm - - - - - W 7 11 4 6 1012.6 1012.6 0.0
27/11:00pm - - - - - W 7 11 4 6 1012.6 1012.6 0.0
27/10:30pm - - - - - W 7 9 4 5 1012.6 1012.6 0.0
27/10:00pm - - - - - WSW 6 9 3 5 1012.6 1012.6 0.0
27/09:30pm - - - - - WSW 6 11 3 6 1012.4 1012.4 0.0
27/09:00pm - - - - - W 6 9 3 5 1012.3 1012.3 0.0
27/08:30pm - - - - - W 6 7 3 4 1012.2 1012.2 0.0
27/08:00pm - - - - - W 6 7 3 4 1012.1 1012.1 0.0
27/07:30pm - - - - - WSW 6 9 3 5 1011.9 1011.9 0.0
27/07:00pm - - - - - WSW 7 9 4 5 1011.5 1011.5 0.0
27/06:30pm - - - - - SSW 9 19 5 10 1011.2 1011.2 0.0
27/06:00pm - - - - - SSW 19 32 10 17 1010.4 1010.4 0.0
27/05:30pm - - - - - S 20 30 11 16 1010.0 1010.0 0.0
27/05:00pm - - - - - SSW 19 32 10 17 1009.6 1009.6 0.0
27/04:30pm - - - - - S 19 30 10 16 1009.1 1009.1 0.0
27/04:00pm - - - - - S 19 30 10 16 1008.7 1008.7 0.0
27/03:30pm - - - - - S 30 41 16 22 1008.1 1008.1 0.0
27/03:00pm - - - - - S 33 46 18 25 1007.8 1007.8 0.0
27/02:30pm - - - - - S 39 50 21 27 1007.5 1007.5 0.0
27/02:00pm - - - - - S 30 43 16 23 1007.3 1007.3 0.0
27/01:30pm - - - - - S 35 50 19 27 1007.1 1007.0 0.0
27/01:00pm - - - - - S 35 50 19 27 1006.6 1006.5 0.0
27/12:30pm - - - - - W 20 37 11 20 1006.0 1005.9 0.0
27/12:00pm - - - - - W 17 28 9 15 1006.0 1005.9 0.0
27/11:30am - - - - - W 11 24 6 13 1006.1 1006.0 0.0
27/11:00am - - - - - W 15 26 8 14 1006.5 1006.4 0.0
27/10:30am - - - - - W 17 32 9 17 1007.1 1007.0 0.0
27/10:00am - - - - - NW 19 43 10 23 1007.3 1007.3 0.0
27/09:30am - - - - - NNW 11 17 6 9 1008.0 1008.0 0.0
27/09:00am - - - - - N 9 15 5 8 1008.2 1008.2 0.0
27/08:30am - - - - - NNW 7 13 4 7 1008.6 1008.6 0.0
27/08:00am - - - - - NNW 9 15 5 8 1008.3 1008.3 0.0
27/07:30am - - - - - NNW 7 13 4 7 1008.4 1008.4 0.0
27/07:00am - - - - - WSW 2 6 1 3 1008.8 1008.8 0.0
27/06:30am - - - - - NW 7 15 4 8 1008.8 1008.8 0.0
27/06:00am - - - - - NW 4 6 2 3 1008.9 1008.9 0.0
27/05:30am - - - - - NW 6 11 3 6 1009.1 1009.1 0.0
27/05:00am - - - - - NW 4 6 2 3 1009.1 1009.1 0.0
27/04:30am - - - - - NNW 4 6 2 3 1009.3 1009.3 0.0
27/04:00am - - - - - N 7 11 4 6 1009.7 1009.7 0.0
27/03:30am - - - - - NW 6 9 3 5 1009.8 1009.8 0.0
27/03:00am - - - - - W 6 9 3 5 1009.8 1009.8 0.0
27/02:30am - - - - - NW 6 9 3 5 1010.2 1010.2 0.0
27/02:00am - - - - - WNW 7 9 4 5 1010.6 1010.6 0.0
27/01:30am - - - - - W 6 9 3 5 1011.1 1011.1 0.0
27/01:00am - - - - - WSW 6 7 3 4 1011.4 1011.4 0.0
27/12:30am 10.7 8.1 4.0 63 3.0 W 7 15 4 8 1011.3 1011.3 0.0
27/12:00am - - - - - WSW 6 9 3 5 1011.6 1011.6 0.0
 
Date/Time
EST
Temp
°C
App
Temp
°C
Dew
Point
°C
Rel
Hum
%
Delta-T
°C
Wind Press
QNH
hPa
Press
MSL
hPa
Rain since
9am
mm
Dir  Spd
km/h
Gust
km/h
Spd
kts
Gust
kts
26/11:30pm 10.4 7.9 4.5 67 2.6 WSW 7 11 4 6 1012.0 1012.0 0.0
26/11:00pm - - - - - W 7 13 4 7 1012.1 1012.1 0.0
26/10:30pm - - - - - WSW 4 7 2 4 1012.2 1012.2 0.0
26/10:00pm - - - - - W 7 9 4 5 1012.6 1012.6 0.0
26/09:30pm - - - - - WSW 7 9 4 5 1012.2 1012.2 0.0
26/09:00pm - - - - - WSW 7 9 4 5 1012.1 1012.1 0.0
26/08:30pm - - - - - WSW 7 9 4 5 1011.9 1011.9 0.0
26/08:00pm - - - - - E 6 7 3 4 1011.9 1011.9 0.0
26/07:30pm - - - - - CALM 0 0 0 0 1011.6 1011.6 0.0
26/07:00pm - - - - - CALM 0 0 0 0 1011.4 1011.4 0.0
26/06:30pm 13.4 12.8 7.4 67 2.9 CALM 0 0 0 0 1011.1 1011.1 0.0
26/06:00pm - - - - - E 2 4 1 2 1010.9 1010.9 0.0
26/05:30pm - - - - - E 4 6 2 3 1010.6 1010.6 0.0
26/05:00pm - - - - - ENE 2 6 1 3 1010.2 1010.2 0.0
26/04:30pm - - - - - ENE 4 6 2 3 1010.1 1010.1 0.0
26/04:00pm - - - - - ENE 4 11 2 6 1009.9 1009.9 0.0
26/03:30pm - - - - - ESE 6 13 3 7 1009.7 1009.7 0.0
26/03:00pm - - - - - SE 7 13 4 7 1009.7 1009.7 0.0
26/02:30pm - - - - - SE 7 13 4 7 1009.9 1009.9 0.0
26/02:00pm - - - - - SSE 13 17 7 9 1009.9 1009.9 0.0
26/01:30pm - - - - - SSE 11 19 6 10 1010.1 1010.1 0.0
26/01:00pm - - - - - SSE 13 19 7 10 1010.3 1010.3 0.0
26/12:30pm - - - - - SE 11 17 6 9 1010.6 1010.6 0.0
26/12:00pm - - - - - SE 7 13 4 7 1011.0 1011.0 0.0
26/11:30am - - - - - SE 9 15 5 8 1011.3 1011.3 0.0
26/11:00am - - - - - SE 7 13 4 7 1011.6 1011.6 0.0
26/10:30am - - - - - SE 6 11 3 6 1011.9 1011.9 0.0
26/10:00am - - - - - S 7 9 4 5 1012.5 1012.5 0.0
26/09:30am - - - - - S 7 13 4 7 1012.8 1012.8 0.0
26/09:00am - - - - - SSW 7 13 4 7 1012.9 1012.9 2.6
26/08:30am - - - - - SW 7 13 4 7 1013.1 1013.1 2.6

Other Formats:

Comma delimited format used in spreadsheet applications
http://www.bom.gov.au/fwo/IDN60801/IDN60801.94938.axf

JavaScript Object Notation format (JSON) in row-major order
http://www.bom.gov.au/fwo/IDN60801/IDN60801.94938.json